KMXF/MXF METAR and TAF weather

Enter ICAO airport designator
Station Type Date Time Source
KMXF METAR 2021/04/18 01:56 UTC NOAA

KMXF 180156Z AUTO 27003KT 10SM FEW150 BKN220 18/12 A2987 RMK AO2 SLP117 T01790121


Station Type Date Time Source
KMXF Decoded METAR 2021/04/18 01:56 UTC NOAA

Maxwell Air Force Base / Montgomery, AL, United States (KMXF) 32-23N 086-22W
Apr 17, 2021 - 09:56 PM EDT / 2021.04.18 0156 UTC
Wind: from the W (270 degrees) at 3 MPH (3 KT):0
Visibility: 10 mile(s):0
Sky conditions: mostly cloudy
Temperature: 64.2 F (17.9 C)
Dew Point: 53.8 F (12.1 C)
Relative Humidity: 68%
Pressure (altimeter): 29.87 in. Hg (1011 hPa)
ob: KMXF 180156Z AUTO 27003KT 10SM FEW150 BKN220 18/12 A2987 RMK AO2 SLP117 T01790121
cycle: 2

Station Type Date Time Source
KMXF TAF 2021/04/17 11:03 UTC NOAA

TAF TAF COR KMXF 171155Z 1711/1817 VRB06KT 9999 BKN040 BKN060 QNH2975INS
TEMPO 1713/1717 9000 -RA OVC035 TX21/1721Z TN13/1711Z

Example: see airport list